createdAt,value
2022-12-17T00:00:31.481Z,54.77
2022-12-17T00:05:51.873Z,54.97
2022-12-17T00:11:12.438Z,54.84
2022-12-17T00:16:33.005Z,54.65
2022-12-17T00:21:53.779Z,54.82
2022-12-17T00:27:17.070Z,54.78
2022-12-17T00:32:37.715Z,54.71
2022-12-17T00:37:58.425Z,54.64
2022-12-17T00:43:26.158Z,54.75
2022-12-17T00:48:47.135Z,54.80
2022-12-17T00:54:07.640Z,54.69
2022-12-17T00:59:28.195Z,54.60
2022-12-17T01:04:48.742Z,54.63
2022-12-17T01:10:09.524Z,54.73
2022-12-17T01:15:30.395Z,54.63
2022-12-17T01:20:50.804Z,54.25
2022-12-17T01:26:16.615Z,54.69
2022-12-17T01:31:37.149Z,54.75
2022-12-17T01:36:58.115Z,54.78
2022-12-17T01:42:18.872Z,54.80
2022-12-17T01:47:39.946Z,54.82
2022-12-17T01:53:00.757Z,54.59
2022-12-17T01:58:21.346Z,54.71
2022-12-17T02:03:42.276Z,54.46
2022-12-17T02:09:24.970Z,54.75
2022-12-17T02:15:06.654Z,54.71
2022-12-17T02:21:02.631Z,54.65
2022-12-17T02:26:34.293Z,54.86
2022-12-17T02:31:57.612Z,54.61
2022-12-17T02:37:18.560Z,54.58
2022-12-17T02:42:42.074Z,54.63
2022-12-17T02:48:04.996Z,54.91
2022-12-17T02:53:25.976Z,54.85
2022-12-17T02:58:46.499Z,54.98
2022-12-17T03:04:07.870Z,54.68
2022-12-17T03:09:28.278Z,54.40
2022-12-17T03:14:49.140Z,54.61
2022-12-17T03:20:09.609Z,54.62
2022-12-17T03:25:30.269Z,54.68
2022-12-17T03:30:50.845Z,54.68
2022-12-17T03:36:14.478Z,54.52
2022-12-17T03:41:35.129Z,54.65
2022-12-17T03:46:56.028Z,54.65
2022-12-17T03:52:17.011Z,54.57
2022-12-17T03:57:37.535Z,54.46
2022-12-17T04:02:58.539Z,54.70
2022-12-17T04:08:19.065Z,54.73
2022-12-17T04:13:41.336Z,54.35
2022-12-17T04:19:02.071Z,54.52
2022-12-17T04:24:22.649Z,54.58
2022-12-17T04:29:43.413Z,54.61
2022-12-17T04:35:04.242Z,54.60
2022-12-17T04:40:25.292Z,54.67
2022-12-17T04:45:46.556Z,54.57
2022-12-17T04:51:07.499Z,54.48
2022-12-17T04:56:28.198Z,54.62
2022-12-17T05:01:48.924Z,54.64
2022-12-17T05:07:09.678Z,54.65
2022-12-17T05:12:30.333Z,54.57
2022-12-17T05:17:50.891Z,54.74
2022-12-17T05:23:11.470Z,54.64
2022-12-17T05:28:32.303Z,54.62
2022-12-17T05:33:53.077Z,54.63
2022-12-17T05:39:13.594Z,54.68
2022-12-17T05:44:34.314Z,54.36
2022-12-17T05:49:56.484Z,54.46
2022-12-17T05:55:16.940Z,54.59
2022-12-17T06:00:37.517Z,54.76
2022-12-17T06:05:58.231Z,54.62
2022-12-17T06:11:19.195Z,54.60
2022-12-17T06:16:40.341Z,54.50
2022-12-17T06:22:01.079Z,54.51
2022-12-17T06:27:21.625Z,54.53
2022-12-17T06:32:55.813Z,54.64
2022-12-17T06:38:21.277Z,54.47
2022-12-17T06:43:41.676Z,54.57
2022-12-17T06:49:02.440Z,54.54
2022-12-17T06:54:27.632Z,54.68
2022-12-17T06:59:48.139Z,54.75
2022-12-17T07:05:08.829Z,54.65
2022-12-17T07:10:30.354Z,54.68
2022-12-17T07:15:50.997Z,54.67
2022-12-17T07:21:12.517Z,54.68
2022-12-17T07:26:33.198Z,54.50
2022-12-17T07:31:54.005Z,54.48
2022-12-17T07:37:20.187Z,54.43
2022-12-17T07:42:41.435Z,54.62
2022-12-17T07:48:01.930Z,54.58
2022-12-17T07:53:24.377Z,54.26
2022-12-17T07:58:44.750Z,54.48
2022-12-17T08:04:05.255Z,54.42
2022-12-17T08:09:25.863Z,54.49
2022-12-17T08:14:46.465Z,54.56
2022-12-17T08:20:07.369Z,54.74
2022-12-17T08:25:28.650Z,54.46
2022-12-17T08:30:49.317Z,54.59
2022-12-17T08:36:15.017Z,54.64
2022-12-17T08:41:35.536Z,54.67
2022-12-17T08:46:56.123Z,54.72
2022-12-17T08:52:17.020Z,54.45
2022-12-17T08:57:37.794Z,54.51
2022-12-17T09:02:58.545Z,54.58
2022-12-17T09:08:25.579Z,54.33
2022-12-17T09:13:46.056Z,54.28
2022-12-17T09:19:06.862Z,54.32
2022-12-17T09:24:29.408Z,54.42
2022-12-17T09:29:49.914Z,54.52
2022-12-17T09:35:10.788Z,54.33
2022-12-17T09:40:37.073Z,54.30
2022-12-17T09:46:03.483Z,54.42
2022-12-17T09:51:24.318Z,54.58
2022-12-17T09:56:47.264Z,54.38
2022-12-17T10:02:07.767Z,54.25
2022-12-17T10:07:33.842Z,54.35
2022-12-17T10:12:54.854Z,54.43
2022-12-17T10:18:15.355Z,54.61
2022-12-17T10:23:44.373Z,54.66
2022-12-17T10:29:04.621Z,54.53
2022-12-17T10:34:27.660Z,54.60
2022-12-17T10:39:48.851Z,54.37
2022-12-17T10:45:09.428Z,54.27
2022-12-17T10:50:41.500Z,54.37
2022-12-17T10:56:14.007Z,54.51
2022-12-17T11:01:53.423Z,54.25
2022-12-17T11:07:15.329Z,54.36
2022-12-17T11:12:38.938Z,54.37
2022-12-17T11:18:01.239Z,54.63
2022-12-17T11:23:23.207Z,54.40
2022-12-17T11:28:45.432Z,54.59
2022-12-17T11:34:20.305Z,54.41
2022-12-17T11:39:48.736Z,54.41
2022-12-17T11:45:16.050Z,54.38
2022-12-17T11:50:45.496Z,54.47
2022-12-17T11:56:36.018Z,54.37
2022-12-17T12:02:55.224Z,54.49
2022-12-17T12:08:27.925Z,54.49
2022-12-17T12:13:54.630Z,54.31
2022-12-17T12:19:38.107Z,54.37
2022-12-17T12:25:27.285Z,54.46
2022-12-17T12:31:12.595Z,54.32
2022-12-17T12:36:36.125Z,54.39
2022-12-17T12:42:18.530Z,54.26
2022-12-17T12:47:52.681Z,54.24
2022-12-17T12:53:13.457Z,54.27
2022-12-17T12:58:45.316Z,54.40
2022-12-17T13:04:06.118Z,54.34
2022-12-17T13:09:22.663Z,54.26
2022-12-17T13:14:31.704Z,54.23
2022-12-17T13:19:33.878Z,54.29
2022-12-17T13:24:35.843Z,54.43
2022-12-17T13:29:38.318Z,54.39
2022-12-17T13:35:15.980Z,54.31
2022-12-17T13:40:32.958Z,54.29
2022-12-17T13:45:39.105Z,54.28
2022-12-17T13:50:41.359Z,54.27
2022-12-17T13:55:51.726Z,54.24
2022-12-17T14:01:12.757Z,54.54
2022-12-17T14:06:15.728Z,54.38
2022-12-17T14:11:36.796Z,54.49
2022-12-17T14:16:46.080Z,54.21
2022-12-17T14:21:51.925Z,54.26
2022-12-17T14:26:56.505Z,54.40
2022-12-17T14:32:01.642Z,54.47
2022-12-17T14:37:03.904Z,54.49
2022-12-17T14:42:26.252Z,54.40
2022-12-17T14:47:36.820Z,54.47
2022-12-17T14:52:47.536Z,54.40
2022-12-17T14:57:50.862Z,54.26
2022-12-17T15:02:55.484Z,54.21
2022-12-17T15:07:57.958Z,54.13
2022-12-17T15:13:00.057Z,54.12
2022-12-17T15:18:02.275Z,54.09
2022-12-17T15:23:04.483Z,54.14
2022-12-17T15:28:06.518Z,54.14
2022-12-17T15:33:08.708Z,54.15
2022-12-17T15:38:12.688Z,54.17
2022-12-17T15:43:16.109Z,54.26
2022-12-17T15:48:20.695Z,54.11
2022-12-17T15:53:22.790Z,54.17
2022-12-17T15:58:24.880Z,54.21
2022-12-17T16:03:27.989Z,54.23
2022-12-17T16:08:30.118Z,54.22
2022-12-17T16:13:32.362Z,54.11
2022-12-17T16:18:35.893Z,54.26
2022-12-17T16:23:39.165Z,54.17
2022-12-17T16:28:44.206Z,54.11
2022-12-17T16:33:48.341Z,54.09
2022-12-17T16:38:53.438Z,54.22
2022-12-17T16:43:55.710Z,54.24
2022-12-17T16:49:00.416Z,54.17
2022-12-17T16:54:15.354Z,54.15
2022-12-17T16:59:18.040Z,54.13
2022-12-17T17:04:23.312Z,54.03
2022-12-17T17:09:26.049Z,54.00
2022-12-17T17:14:28.582Z,54.04
2022-12-17T17:19:30.933Z,54.08
2022-12-17T17:24:33.017Z,54.28
2022-12-17T17:29:35.207Z,54.24
2022-12-17T17:34:37.170Z,54.26
2022-12-17T17:39:39.407Z,54.28
2022-12-17T17:44:41.487Z,54.21
2022-12-17T17:49:43.601Z,53.84
2022-12-17T17:54:47.352Z,53.91
2022-12-17T17:59:49.325Z,53.91
2022-12-17T18:04:51.432Z,53.95
2022-12-17T18:09:53.680Z,54.15
2022-12-17T18:20:18.867Z,54.03
2022-12-17T18:25:21.000Z,54.11
2022-12-17T18:30:23.191Z,54.23
2022-12-17T18:35:25.475Z,54.39
2022-12-17T18:40:32.966Z,54.47
2022-12-17T18:45:38.537Z,54.40
2022-12-17T18:50:40.761Z,54.34
2022-12-17T18:55:42.775Z,54.27
2022-12-17T19:00:44.908Z,54.27
2022-12-17T19:05:51.303Z,54.24
2022-12-17T19:10:56.606Z,54.30
2022-12-17T19:16:06.703Z,54.14
2022-12-17T19:21:12.697Z,54.16
2022-12-17T19:26:17.267Z,53.92
2022-12-17T19:31:22.145Z,54.20
2022-12-17T19:36:28.387Z,54.14
2022-12-17T19:41:33.088Z,54.21
2022-12-17T19:46:36.553Z,54.19
2022-12-17T19:51:43.185Z,54.38
2022-12-17T19:56:45.519Z,54.20
2022-12-17T20:01:49.533Z,54.09
2022-12-17T20:06:51.944Z,54.14
2022-12-17T20:11:54.134Z,54.06
2022-12-17T20:16:58.642Z,54.24
2022-12-17T20:22:04.615Z,54.01
2022-12-17T20:27:07.316Z,53.93
2022-12-17T20:32:09.572Z,53.85
2022-12-17T20:37:11.845Z,53.92
2022-12-17T20:42:14.128Z,54.23
2022-12-17T20:47:16.253Z,54.24
2022-12-17T20:52:19.307Z,54.20
2022-12-17T20:57:21.413Z,54.21
2022-12-17T21:02:23.847Z,54.10
2022-12-17T21:07:26.201Z,54.38
2022-12-17T21:12:48.259Z,54.04
2022-12-17T21:17:50.186Z,54.10
2022-12-17T21:22:52.260Z,53.76
2022-12-17T21:27:54.349Z,53.74
2022-12-17T21:32:56.411Z,53.80
2022-12-17T21:37:58.606Z,53.83
2022-12-17T21:43:03.489Z,53.96
2022-12-17T21:48:07.630Z,53.98
2022-12-17T21:53:14.480Z,54.00
2022-12-17T21:58:18.541Z,54.01
2022-12-17T22:03:20.727Z,54.05
2022-12-17T22:08:22.815Z,54.08
2022-12-17T22:13:43.670Z,54.11
2022-12-17T22:18:45.705Z,54.19
2022-12-17T22:23:48.946Z,54.24
2022-12-17T22:28:51.410Z,54.05
2022-12-17T22:34:24.756Z,53.99
2022-12-17T22:42:31.543Z,54.10
2022-12-17T22:44:55.845Z,54.11
2022-12-17T22:49:59.867Z,54.21
2022-12-17T22:55:02.639Z,54.18
2022-12-17T23:00:22.896Z,54.14
2022-12-17T23:05:27.361Z,54.27
2022-12-17T23:10:29.591Z,54.07
2022-12-17T23:15:36.801Z,54.08
2022-12-17T23:20:38.972Z,54.16
2022-12-17T23:25:41.050Z,54.28
2022-12-17T23:30:43.632Z,54.31
2022-12-17T23:35:45.767Z,54.14
2022-12-17T23:40:47.817Z,54.09
2022-12-17T23:45:49.930Z,54.02
2022-12-17T23:50:51.909Z,53.96
2022-12-17T23:55:54.628Z,54.12
